createdAt,value
2019-01-25T00:02:27.307Z,60.13
2019-01-25T00:04:54.435Z,66.70
2019-01-25T00:07:21.189Z,68.23
2019-01-25T00:09:48.036Z,66.67
2019-01-25T00:12:15.002Z,60.50
2019-01-25T00:14:41.908Z,75.00
2019-01-25T00:17:08.968Z,61.90
2019-01-25T00:19:35.778Z,61.10
2019-01-25T00:22:03.688Z,62.97
2019-01-25T00:24:33.069Z,63.13
2019-01-25T00:26:59.966Z,64.60
2019-01-25T00:29:26.946Z,57.00
2019-01-25T00:31:53.774Z,59.07
2019-01-25T00:34:20.719Z,57.13
2019-01-25T00:36:47.607Z,53.30
2019-01-25T00:39:14.475Z,56.30
2019-01-25T00:41:41.332Z,56.67
2019-01-25T00:44:08.223Z,58.57
2019-01-25T00:46:35.070Z,57.00
2019-01-25T00:49:01.946Z,55.70
2019-01-25T00:51:28.823Z,53.40
2019-01-25T00:53:55.704Z,62.27
2019-01-25T00:56:22.571Z,49.57
2019-01-25T00:58:49.451Z,53.63
2019-01-25T01:01:16.607Z,58.10
2019-01-25T01:03:43.499Z,54.57
2019-01-25T01:06:10.619Z,52.90
2019-01-25T01:08:37.499Z,58.13
2019-01-25T01:11:04.571Z,58.50
2019-01-25T01:13:31.416Z,64.43
2019-01-25T01:15:58.447Z,65.50
2019-01-25T01:18:25.483Z,64.07
2019-01-25T01:20:52.331Z,64.27
2019-01-25T01:23:19.186Z,62.23
2019-01-25T01:25:46.204Z,61.50
2019-01-25T01:28:13.047Z,59.90
2019-01-25T01:30:39.999Z,65.90
2019-01-25T01:33:06.855Z,58.33
2019-01-25T01:35:33.840Z,61.67
2019-01-25T01:38:00.669Z,61.13
2019-01-25T01:40:27.539Z,61.07
2019-01-25T01:42:54.418Z,63.40
2019-01-25T01:45:21.483Z,54.30
2019-01-25T01:47:48.473Z,56.93
2019-01-25T01:50:16.147Z,66.13
2019-01-25T01:52:43.752Z,57.70
2019-01-25T01:55:11.182Z,60.90
2019-01-25T01:57:38.168Z,58.27
2019-01-25T02:00:08.691Z,63.30
2019-01-25T02:02:35.985Z,58.37
2019-01-25T02:05:03.871Z,61.83
2019-01-25T02:07:30.607Z,62.03
2019-01-25T02:09:57.500Z,57.50
2019-01-25T02:12:24.509Z,57.60
2019-01-25T02:14:51.476Z,65.57
2019-01-25T02:17:18.453Z,57.83
2019-01-25T02:19:45.175Z,57.53
2019-01-25T02:22:12.015Z,64.97
2019-01-25T02:24:38.768Z,66.30
2019-01-25T02:27:05.633Z,57.83
2019-01-25T02:29:32.599Z,63.57
2019-01-25T02:31:59.432Z,61.50
2019-01-25T02:34:26.407Z,62.30
2019-01-25T02:36:53.224Z,64.30
2019-01-25T02:39:20.088Z,66.33
2019-01-25T02:41:47.091Z,60.97
2019-01-25T02:44:13.957Z,67.87
2019-01-25T02:46:40.935Z,66.20
2019-01-25T02:49:07.654Z,65.20
2019-01-25T02:51:34.680Z,65.93
2019-01-25T02:54:01.575Z,60.93
2019-01-25T02:56:28.721Z,62.00
2019-01-25T02:58:55.586Z,61.70
2019-01-25T03:01:22.483Z,64.60
2019-01-25T03:03:50.540Z,59.63
2019-01-25T03:06:20.886Z,61.80
2019-01-25T03:08:47.787Z,61.60
2019-01-25T03:11:14.635Z,64.90
2019-01-25T03:13:41.349Z,60.70
2019-01-25T03:16:08.215Z,66.73
2019-01-25T03:18:35.092Z,67.10
2019-01-25T03:21:02.011Z,61.83
2019-01-25T03:23:28.899Z,62.37
2019-01-25T03:25:55.743Z,64.40
2019-01-25T03:28:22.712Z,62.10
2019-01-25T03:30:49.951Z,58.90
2019-01-25T03:33:16.848Z,62.77
2019-01-25T03:35:43.752Z,65.27
2019-01-25T03:38:10.804Z,62.17
2019-01-25T03:40:37.816Z,65.20
2019-01-25T03:43:04.739Z,59.73
2019-01-25T03:45:31.719Z,67.03
2019-01-25T03:47:58.688Z,64.87
2019-01-25T03:50:27.415Z,63.37
2019-01-25T03:52:54.358Z,65.50
2019-01-25T03:55:21.622Z,63.57
2019-01-25T03:57:48.636Z,65.03
2019-01-25T04:00:17.649Z,68.20
2019-01-25T04:02:44.917Z,61.53
2019-01-25T04:05:12.512Z,65.63
2019-01-25T04:07:39.445Z,73.57
2019-01-25T04:10:08.335Z,65.43
2019-01-25T04:12:35.172Z,69.93
2019-01-25T04:15:02.763Z,66.50
2019-01-25T04:17:29.481Z,70.70
2019-01-25T04:19:56.238Z,73.30
2019-01-25T04:22:23.227Z,71.70
2019-01-25T04:24:50.091Z,70.90
2019-01-25T04:27:16.790Z,70.37
2019-01-25T04:29:43.622Z,69.80
2019-01-25T04:32:10.599Z,71.30
2019-01-25T04:34:37.407Z,73.07
2019-01-25T04:37:04.287Z,69.47
2019-01-25T04:39:31.662Z,64.40
2019-01-25T04:41:58.671Z,68.97
2019-01-25T04:44:28.387Z,70.73
2019-01-25T04:47:05.078Z,78.83
2019-01-25T04:49:34.869Z,71.73
2019-01-25T04:52:07.949Z,75.40
2019-01-25T04:54:39.593Z,75.37
2019-01-25T04:57:09.409Z,64.87
2019-01-25T04:59:38.443Z,72.10
2019-01-25T05:02:05.417Z,77.47
2019-01-25T05:04:42.038Z,72.13
2019-01-25T05:07:09.132Z,82.33
2019-01-25T05:09:37.679Z,79.13
2019-01-25T05:12:05.143Z,77.53
2019-01-25T05:14:33.320Z,75.03
2019-01-25T05:17:00.287Z,77.07
2019-01-25T05:19:27.133Z,79.23
2019-01-25T05:21:54.136Z,78.13
2019-01-25T05:24:20.985Z,73.87
2019-01-25T05:26:49.771Z,80.93
2019-01-25T05:29:21.846Z,76.27
2019-01-25T05:31:48.839Z,79.07
2019-01-25T05:34:15.961Z,79.83
2019-01-25T05:36:46.002Z,78.70
2019-01-25T05:39:14.617Z,88.33
2019-01-25T05:41:41.408Z,76.30
2019-01-25T05:44:08.348Z,83.50
2019-01-25T05:46:35.214Z,84.43
2019-01-25T05:49:02.226Z,83.57
2019-01-25T05:51:33.521Z,80.53
2019-01-25T05:53:57.791Z,83.23
2019-01-25T05:56:24.802Z,86.73
2019-01-25T05:58:51.539Z,87.57
2019-01-25T06:01:18.455Z,79.63
2019-01-25T06:03:45.412Z,85.17
2019-01-25T06:06:12.392Z,83.37
2019-01-25T06:08:43.740Z,86.73
2019-01-25T06:11:09.444Z,90.03
2019-01-25T06:13:37.255Z,86.13
2019-01-25T06:16:04.223Z,91.77
2019-01-25T06:18:31.071Z,87.47
2019-01-25T06:20:58.264Z,88.53
2019-01-25T06:23:25.190Z,85.73
2019-01-25T06:25:55.804Z,84.17
2019-01-25T06:28:22.862Z,86.13
2019-01-25T06:30:50.015Z,83.00
2019-01-25T06:33:16.887Z,85.77
2019-01-25T06:35:43.879Z,83.90
2019-01-25T06:38:10.872Z,93.80
2019-01-25T06:40:37.735Z,92.93
2019-01-25T06:43:04.591Z,87.40
2019-01-25T06:45:31.420Z,94.03
2019-01-25T06:47:58.291Z,87.33
2019-01-25T06:50:25.187Z,93.93
2019-01-25T06:52:52.207Z,86.97
2019-01-25T06:55:19.079Z,91.10
2019-01-25T06:58:02.063Z,92.30
2019-01-25T07:00:29.347Z,89.63
2019-01-25T07:02:56.338Z,85.53
2019-01-25T07:05:23.199Z,86.53
2019-01-25T07:07:49.922Z,93.90
2019-01-25T07:10:17.250Z,96.07
2019-01-25T07:12:44.224Z,83.43
2019-01-25T07:15:12.246Z,94.23
2019-01-25T07:17:39.091Z,85.83
2019-01-25T07:20:08.751Z,85.57
2019-01-25T07:22:35.653Z,94.10
2019-01-25T07:25:03.335Z,88.77
2019-01-25T07:27:30.059Z,87.93
2019-01-25T07:29:56.822Z,88.63
2019-01-25T07:32:23.843Z,88.67
2019-01-25T07:34:50.645Z,92.50
2019-01-25T07:37:17.391Z,88.60
2019-01-25T07:39:45.239Z,85.40
2019-01-25T07:42:11.940Z,87.90
2019-01-25T07:44:38.885Z,91.43
2019-01-25T07:47:05.859Z,86.20
2019-01-25T07:49:32.611Z,89.47
2019-01-25T07:51:59.563Z,97.40
2019-01-25T07:54:26.357Z,97.40
2019-01-25T07:56:53.177Z,106.33
2019-01-25T07:59:20.032Z,93.40
2019-01-25T08:01:46.845Z,95.53
2019-01-25T08:04:13.738Z,89.33
2019-01-25T08:06:40.757Z,90.13
2019-01-25T08:09:08.641Z,96.10
2019-01-25T08:11:35.403Z,95.97
2019-01-25T08:14:02.885Z,89.73
2019-01-25T08:16:29.913Z,98.77
2019-01-25T08:18:56.620Z,91.80
2019-01-25T08:21:23.483Z,92.87
2019-01-25T08:23:50.484Z,93.57
2019-01-25T08:26:17.553Z,94.57
2019-01-25T08:28:44.558Z,95.63
2019-01-25T08:31:11.588Z,107.33
2019-01-25T08:33:38.399Z,97.60
2019-01-25T08:36:05.448Z,97.23
2019-01-25T08:38:32.381Z,91.40
2019-01-25T08:40:59.150Z,95.93
2019-01-25T08:43:25.995Z,95.30
2019-01-25T08:45:52.865Z,101.47
2019-01-25T08:48:19.707Z,90.70
2019-01-25T08:50:46.673Z,103.70
2019-01-25T08:53:13.630Z,99.80
2019-01-25T08:55:40.585Z,109.63
2019-01-25T08:58:07.598Z,102.10
2019-01-25T09:00:34.291Z,105.13
2019-01-25T09:03:01.163Z,102.03
2019-01-25T09:05:28.039Z,111.53
2019-01-25T09:07:54.999Z,106.77
2019-01-25T09:10:21.892Z,107.83
2019-01-25T09:12:48.880Z,109.37
2019-01-25T09:15:18.612Z,102.43
2019-01-25T09:17:45.647Z,106.53
2019-01-25T09:20:15.323Z,117.90
2019-01-25T09:22:42.255Z,116.27
2019-01-25T09:25:09.219Z,112.83
2019-01-25T09:27:36.178Z,110.90
2019-01-25T09:30:04.682Z,114.57
2019-01-25T09:32:31.408Z,122.40
2019-01-25T09:34:58.263Z,115.20
2019-01-25T09:37:25.103Z,107.77
2019-01-25T09:39:52.032Z,122.03
2019-01-25T09:42:19.035Z,120.20
2019-01-25T09:44:45.891Z,110.17
2019-01-25T09:47:13.028Z,119.57
2019-01-25T09:49:40.012Z,113.40
2019-01-25T09:52:06.931Z,116.83
2019-01-25T09:54:33.915Z,108.13
2019-01-25T09:57:00.642Z,121.10
2019-01-25T09:59:27.349Z,115.67
2019-01-25T10:01:54.172Z,110.43
2019-01-25T10:04:21.012Z,110.90
2019-01-25T10:06:47.846Z,118.07
2019-01-25T10:09:14.704Z,112.43
2019-01-25T10:11:41.428Z,119.23
2019-01-25T10:14:08.299Z,120.40
2019-01-25T10:16:35.203Z,111.30
2019-01-25T10:19:02.138Z,113.90
2019-01-25T10:21:28.979Z,128.00
2019-01-25T10:23:55.731Z,115.10
2019-01-25T10:26:22.463Z,112.00
2019-01-25T10:28:49.213Z,113.47
2019-01-25T10:31:16.209Z,121.40
2019-01-25T10:33:42.963Z,115.87
2019-01-25T10:36:09.728Z,117.03
2019-01-25T10:38:36.448Z,122.53
2019-01-25T10:41:03.523Z,116.83
2019-01-25T10:43:30.574Z,110.53
2019-01-25T10:45:58.326Z,125.90
2019-01-25T10:48:25.265Z,117.17
2019-01-25T10:50:52.128Z,115.13
2019-01-25T10:53:18.902Z,119.80
2019-01-25T10:55:45.959Z,124.13
2019-01-25T10:58:12.946Z,117.43
2019-01-25T11:00:39.950Z,111.43
2019-01-25T11:03:06.815Z,124.63
2019-01-25T11:05:33.768Z,118.57
2019-01-25T11:08:00.593Z,126.80
2019-01-25T11:10:27.550Z,124.77
2019-01-25T11:13:00.755Z,120.30
2019-01-25T11:15:23.745Z,126.40
2019-01-25T11:17:50.547Z,123.27
2019-01-25T11:20:18.838Z,120.30
2019-01-25T11:22:45.819Z,121.67
2019-01-25T11:25:18.445Z,115.30
2019-01-25T11:27:45.191Z,116.03
2019-01-25T11:30:12.619Z,119.73
2019-01-25T11:32:39.464Z,125.80
2019-01-25T11:35:06.518Z,121.33
2019-01-25T11:37:33.383Z,130.93
2019-01-25T11:40:00.356Z,122.27
2019-01-25T11:42:27.194Z,114.33
2019-01-25T11:44:54.191Z,120.87
2019-01-25T11:47:21.027Z,124.67
2019-01-25T11:49:48.035Z,130.33
2019-01-25T11:52:14.887Z,127.60
2019-01-25T11:54:41.837Z,119.50
2019-01-25T11:57:08.691Z,128.17
2019-01-25T11:59:35.573Z,133.13
2019-01-25T12:02:02.479Z,117.27
2019-01-25T12:04:29.474Z,123.20
2019-01-25T12:06:56.339Z,140.83
2019-01-25T12:09:23.117Z,123.47
2019-01-25T12:11:50.127Z,130.13
2019-01-25T12:14:16.892Z,127.53
2019-01-25T12:16:43.851Z,134.50
2019-01-25T12:19:10.602Z,129.87
2019-01-25T12:21:37.479Z,123.43
2019-01-25T12:24:04.687Z,120.20
2019-01-25T12:26:32.145Z,129.63
2019-01-25T12:28:59.124Z,130.17
2019-01-25T12:31:25.987Z,132.10
2019-01-25T12:33:53.311Z,125.60
2019-01-25T12:36:20.035Z,134.37
2019-01-25T12:38:46.944Z,129.77
2019-01-25T12:41:13.835Z,134.53
2019-01-25T12:43:40.715Z,132.60
2019-01-25T12:46:07.572Z,131.40
2019-01-25T12:48:34.334Z,123.70
2019-01-25T12:51:18.155Z,131.67
2019-01-25T12:53:44.922Z,127.57
2019-01-25T12:56:11.906Z,124.43
2019-01-25T12:58:38.983Z,123.07
2019-01-25T13:01:06.484Z,123.33
2019-01-25T13:03:33.531Z,123.87
2019-01-25T13:06:00.496Z,134.13
2019-01-25T13:08:27.219Z,137.30
2019-01-25T13:10:54.102Z,151.23
2019-01-25T13:13:21.098Z,128.63
2019-01-25T13:15:48.115Z,125.43
2019-01-25T13:18:14.975Z,129.60
2019-01-25T13:20:42.665Z,124.00
2019-01-25T13:23:09.555Z,122.57
2019-01-25T13:25:36.539Z,121.43
2019-01-25T13:28:03.342Z,130.13
2019-01-25T13:30:30.255Z,120.30
2019-01-25T13:32:57.897Z,132.33
2019-01-25T13:35:25.023Z,129.43
2019-01-25T13:37:52.116Z,126.20
2019-01-25T13:40:20.404Z,129.93
2019-01-25T13:42:47.411Z,126.40
2019-01-25T13:45:15.432Z,115.73
2019-01-25T13:47:42.758Z,124.77
2019-01-25T13:50:11.787Z,119.63
2019-01-25T13:52:38.675Z,127.37
2019-01-25T13:55:07.921Z,117.13
2019-01-25T13:57:34.751Z,124.13
2019-01-25T14:00:01.739Z,120.20
2019-01-25T14:02:28.630Z,126.50
2019-01-25T14:04:55.472Z,129.20
2019-01-25T14:07:22.329Z,123.40
2019-01-25T14:09:49.079Z,125.37
2019-01-25T14:12:15.939Z,119.50
2019-01-25T14:14:42.672Z,128.13
2019-01-25T14:17:09.515Z,113.63
2019-01-25T14:19:36.239Z,120.97
2019-01-25T14:22:03.460Z,123.73
2019-01-25T14:24:30.430Z,129.03
2019-01-25T14:26:57.171Z,125.87
2019-01-25T14:29:24.013Z,117.77
2019-01-25T14:31:50.959Z,116.13
2019-01-25T14:34:17.799Z,125.73
2019-01-25T14:36:44.649Z,128.57
2019-01-25T14:39:11.423Z,123.80
2019-01-25T14:41:38.221Z,128.07
2019-01-25T14:44:05.181Z,116.67
2019-01-25T14:46:32.095Z,127.03
2019-01-25T14:48:58.973Z,117.87
2019-01-25T14:51:26.028Z,130.03
2019-01-25T14:53:52.763Z,122.00
2019-01-25T14:56:23.039Z,117.23
2019-01-25T14:58:51.013Z,118.47
2019-01-25T15:01:17.938Z,120.60
2019-01-25T15:03:44.647Z,123.30
2019-01-25T15:06:11.475Z,126.80
2019-01-25T15:08:38.327Z,115.53
2019-01-25T15:11:05.128Z,123.10
2019-01-25T15:13:31.959Z,123.87
2019-01-25T15:15:58.835Z,118.43
2019-01-25T15:18:25.712Z,120.10
2019-01-25T15:20:52.479Z,123.57
2019-01-25T15:23:19.303Z,117.50
2019-01-25T15:25:48.070Z,116.40
2019-01-25T15:28:15.064Z,118.80
2019-01-25T15:30:41.914Z,126.47
2019-01-25T15:33:08.784Z,124.70
2019-01-25T15:35:35.480Z,127.83
2019-01-25T15:38:02.488Z,127.17
2019-01-25T15:40:29.579Z,152.83
2019-01-25T15:42:57.097Z,141.67
2019-01-25T15:45:24.766Z,125.80
2019-01-25T15:47:51.755Z,117.87
2019-01-25T15:50:23.514Z,122.23
2019-01-25T15:52:50.555Z,126.80
2019-01-25T15:55:18.684Z,134.20
2019-01-25T15:57:45.665Z,133.03
2019-01-25T16:00:14.857Z,122.40
2019-01-25T16:02:41.967Z,120.30
2019-01-25T16:05:10.651Z,124.53
2019-01-25T16:07:37.385Z,123.43
2019-01-25T16:10:07.035Z,124.07
2019-01-25T16:12:34.021Z,116.77
2019-01-25T16:15:01.015Z,114.17
2019-01-25T16:17:28.152Z,123.53
2019-01-25T16:19:55.030Z,125.23
2019-01-25T16:22:21.850Z,123.33
2019-01-25T16:24:48.737Z,118.87
2019-01-25T16:27:15.729Z,119.37
2019-01-25T16:29:42.449Z,106.30
2019-01-25T16:32:09.335Z,122.63
2019-01-25T16:34:36.227Z,118.07
2019-01-25T16:37:03.160Z,118.23
2019-01-25T16:39:30.151Z,106.07
2019-01-25T16:41:56.895Z,116.53
2019-01-25T16:44:25.805Z,110.53
2019-01-25T16:46:52.423Z,96.87
2019-01-25T16:49:19.334Z,104.60
2019-01-25T16:51:46.091Z,105.03
2019-01-25T16:54:12.854Z,107.13
2019-01-25T16:56:39.731Z,102.47
2019-01-25T16:59:06.707Z,97.23
2019-01-25T17:01:33.581Z,94.13
2019-01-25T17:04:00.472Z,91.17
2019-01-25T17:06:27.388Z,104.03
2019-01-25T17:08:54.100Z,93.87
2019-01-25T17:11:20.985Z,80.60
2019-01-25T17:13:47.703Z,85.47
2019-01-25T17:16:14.564Z,65.47
2019-01-25T17:18:41.287Z,68.37
2019-01-25T17:21:08.252Z,53.87
2019-01-25T17:23:35.062Z,43.80
2019-01-25T17:26:01.900Z,44.63
2019-01-25T17:28:28.703Z,39.97
2019-01-25T17:30:55.517Z,42.07
2019-01-25T17:33:22.282Z,41.10
2019-01-25T17:35:49.528Z,45.83
2019-01-25T17:38:16.371Z,44.70
2019-01-25T17:40:46.921Z,42.97
2019-01-25T17:43:13.811Z,43.20
2019-01-25T17:45:40.712Z,37.47
2019-01-25T17:48:07.635Z,44.00
2019-01-25T17:50:34.643Z,43.27
2019-01-25T17:53:01.751Z,44.53
2019-01-25T17:55:29.471Z,47.77
2019-01-25T17:57:56.520Z,49.97
2019-01-25T18:00:30.552Z,56.43
2019-01-25T18:02:57.619Z,54.60
2019-01-25T18:05:24.606Z,58.00
2019-01-25T18:07:51.663Z,57.50
2019-01-25T18:10:19.343Z,57.20
2019-01-25T18:12:46.167Z,58.63
2019-01-25T18:15:13.649Z,61.53
2019-01-25T18:17:40.507Z,60.00
2019-01-25T18:20:09.286Z,61.67
2019-01-25T18:22:36.279Z,63.23
2019-01-25T18:25:04.391Z,55.60
2019-01-25T18:27:31.119Z,59.77
2019-01-25T18:29:59.418Z,56.63
2019-01-25T18:32:26.454Z,63.33
2019-01-25T18:34:53.292Z,61.37
2019-01-25T18:37:20.170Z,64.80
2019-01-25T18:39:47.172Z,62.83
2019-01-25T18:42:14.320Z,65.87
2019-01-25T18:44:41.051Z,58.93
2019-01-25T18:47:07.959Z,61.03
2019-01-25T18:49:34.835Z,64.67
2019-01-25T18:52:01.871Z,65.33
2019-01-25T18:54:28.598Z,66.67
2019-01-25T18:56:55.697Z,68.40
2019-01-25T18:59:22.718Z,61.07
2019-01-25T19:01:49.910Z,65.83
2019-01-25T19:04:16.830Z,61.97
2019-01-25T19:06:43.859Z,65.07
2019-01-25T19:09:10.863Z,72.33
2019-01-25T19:11:37.703Z,73.67
2019-01-25T19:14:04.758Z,63.70
2019-01-25T19:16:31.483Z,75.27
2019-01-25T19:18:58.354Z,67.07
2019-01-25T19:21:25.087Z,69.73
2019-01-25T19:23:51.827Z,67.70
2019-01-25T19:26:19.554Z,75.23
2019-01-25T19:28:46.627Z,69.23
2019-01-25T19:31:13.554Z,81.33
2019-01-25T19:33:40.571Z,73.13
2019-01-25T19:36:07.555Z,75.97
2019-01-25T19:38:34.429Z,87.40
2019-01-25T19:41:01.159Z,75.40
2019-01-25T19:43:28.050Z,70.87
2019-01-25T19:45:55.179Z,78.33
2019-01-25T19:48:22.035Z,80.77
2019-01-25T19:50:49.003Z,80.33
2019-01-25T19:53:15.707Z,81.93
2019-01-25T19:55:42.703Z,81.53
2019-01-25T19:58:12.576Z,80.47
2019-01-25T20:00:40.156Z,91.57
2019-01-25T20:03:07.215Z,90.33
2019-01-25T20:05:34.295Z,96.03
2019-01-25T20:08:01.343Z,89.07
2019-01-25T20:10:28.293Z,98.13
2019-01-25T20:12:55.383Z,94.40
2019-01-25T20:15:22.347Z,101.63
2019-01-25T20:17:49.318Z,105.30
2019-01-25T20:20:21.559Z,96.13
2019-01-25T20:22:48.514Z,98.07
2019-01-25T20:25:15.558Z,91.00
2019-01-25T20:27:42.554Z,102.53
2019-01-25T20:30:13.419Z,99.50
2019-01-25T20:32:40.243Z,99.73
2019-01-25T20:35:09.299Z,98.60
2019-01-25T20:37:36.257Z,102.07
2019-01-25T20:40:05.320Z,105.57
2019-01-25T20:42:32.139Z,103.20
2019-01-25T20:44:59.071Z,110.23
2019-01-25T20:47:25.850Z,105.80
2019-01-25T20:49:52.694Z,109.67
2019-01-25T20:52:19.571Z,100.07
2019-01-25T20:54:46.463Z,109.60
2019-01-25T20:57:13.347Z,108.83
2019-01-25T20:59:40.223Z,106.57
2019-01-25T21:02:07.293Z,111.07
2019-01-25T21:04:34.044Z,103.27
2019-01-25T21:07:00.983Z,107.70
2019-01-25T21:09:27.858Z,116.50
2019-01-25T21:11:54.822Z,106.10
2019-01-25T21:14:21.730Z,110.60
2019-01-25T21:16:48.629Z,103.87
2019-01-25T21:19:15.614Z,104.07
2019-01-25T21:21:42.570Z,109.93
2019-01-25T21:24:10.150Z,108.23
2019-01-25T21:26:37.096Z,103.23
2019-01-25T21:29:04.175Z,115.63
2019-01-25T21:31:31.035Z,117.63
2019-01-25T21:33:57.904Z,115.47
2019-01-25T21:36:24.910Z,103.97
2019-01-25T21:38:51.766Z,121.17
2019-01-25T21:41:18.791Z,112.00
2019-01-25T21:43:45.796Z,109.60
2019-01-25T21:46:12.728Z,108.60
2019-01-25T21:48:39.661Z,110.40
2019-01-25T21:51:06.789Z,111.57
2019-01-25T21:53:33.757Z,120.70
2019-01-25T21:56:00.615Z,128.00
2019-01-25T21:58:27.358Z,106.90
2019-01-25T22:00:54.779Z,111.83
2019-01-25T22:03:21.745Z,105.57
2019-01-25T22:05:48.736Z,103.17
2019-01-25T22:08:19.165Z,104.50
2019-01-25T22:10:47.842Z,115.20
2019-01-25T22:13:14.796Z,103.07
2019-01-25T22:15:41.643Z,109.17
2019-01-25T22:18:09.789Z,104.03
2019-01-25T22:20:36.866Z,105.90
2019-01-25T22:23:04.171Z,94.47
2019-01-25T22:25:31.063Z,93.10
2019-01-25T22:27:58.512Z,99.30
2019-01-25T22:30:25.621Z,115.77
2019-01-25T22:32:52.483Z,95.53
2019-01-25T22:35:19.615Z,101.30
2019-01-25T22:37:46.716Z,109.07
2019-01-25T22:40:19.168Z,92.83
2019-01-25T22:42:46.012Z,101.03
2019-01-25T22:45:15.202Z,108.27
2019-01-25T22:47:42.059Z,103.40
2019-01-25T22:50:15.214Z,100.57
2019-01-25T22:52:42.084Z,95.30
2019-01-25T22:55:10.539Z,91.67
2019-01-25T22:57:37.383Z,115.10
2019-01-25T23:00:14.630Z,95.57
2019-01-25T23:02:41.992Z,92.00
2019-01-25T23:05:51.115Z,111.40
2019-01-25T23:08:17.864Z,105.90
2019-01-25T23:10:44.722Z,101.27
2019-01-25T23:13:11.458Z,113.33
2019-01-25T23:15:38.446Z,107.80
2019-01-25T23:18:05.492Z,104.00
2019-01-25T23:20:32.240Z,103.87
2019-01-25T23:22:59.283Z,103.80
2019-01-25T23:25:26.031Z,104.53
2019-01-25T23:27:53.506Z,107.60
2019-01-25T23:30:20.527Z,105.50
2019-01-25T23:32:47.246Z,107.93
2019-01-25T23:35:14.110Z,109.83
2019-01-25T23:37:40.930Z,97.07
2019-01-25T23:40:10.815Z,105.67
2019-01-25T23:42:37.799Z,89.70
2019-01-25T23:45:06.642Z,89.77
2019-01-25T23:47:33.540Z,85.03
2019-01-25T23:50:00.382Z,90.80
2019-01-25T23:52:27.143Z,101.13
2019-01-25T23:54:54.003Z,78.57
2019-01-25T23:57:20.709Z,80.07
2019-01-25T23:59:47.686Z,79.20
